Idman, Idaho
Current Conditions -  °F | °C
As of 7:53 PM on Monday 20 Oct 2014 (Local Time) from KRXE Reporting Station
Clear Clear  
Wind Chill: 16°   Ceiling: Unl
Heat Index: 16°   Visibility: 10mi
Dew Point:   Wind: 3mph
Humidity: 41%   Direction: 150°SSE
Pressure: 29.92"   Gusts: NA
Location:  44.2396°N, 112.579°W
Report Text: KRXE 210153Z AUTO 15003KT 10SM CLR 16/02 A2992 RMK AO2 SLP122 T01560022
Loading
Personal Weather Stations






























Interactive Weather Map
Tropical Storm Tracking
New forecast layout! Learn more

10-Day Weather Forecast

Advertisements
Track Severe Weather on mobile